createdAt,value
2022-12-24T00:01:20.414Z,1.00
2022-12-24T00:03:48.180Z,1.00
2022-12-24T00:06:23.861Z,2.25
2022-12-24T00:08:51.652Z,2.25
2022-12-24T00:11:19.643Z,1.50
2022-12-24T00:13:46.767Z,0.00
2022-12-24T00:16:14.115Z,1.00
2022-12-24T00:18:46.291Z,0.00
2022-12-24T00:21:15.393Z,1.50
2022-12-24T00:23:44.493Z,1.00
2022-12-24T00:26:12.489Z,1.00
2022-12-24T00:28:39.743Z,2.00
2022-12-24T00:31:16.077Z,1.25
2022-12-24T00:33:43.577Z,1.00
2022-12-24T00:36:10.570Z,1.00
2022-12-24T00:38:38.068Z,1.00
2022-12-24T00:41:07.099Z,1.00
2022-12-24T00:43:34.136Z,2.00
2022-12-24T00:46:01.155Z,1.25
2022-12-24T00:48:28.131Z,0.00
2022-12-24T00:50:55.147Z,0.50
2022-12-24T00:53:22.152Z,0.50
2022-12-24T00:55:49.100Z,1.00
2022-12-24T00:58:16.015Z,1.50
2022-12-24T01:00:42.961Z,0.00
2022-12-24T01:03:09.934Z,6.00
2022-12-24T01:05:36.950Z,9.00
2022-12-24T01:08:03.923Z,9.00
2022-12-24T01:10:31.004Z,6.75
2022-12-24T01:12:57.943Z,3.50
2022-12-24T01:15:24.834Z,5.50
2022-12-24T01:17:51.993Z,2.00
2022-12-24T01:20:19.265Z,1.50
2022-12-24T01:22:46.454Z,0.25
2022-12-24T01:25:13.493Z,1.00
2022-12-24T01:27:40.484Z,1.00
2022-12-24T01:30:09.428Z,3.00
2022-12-24T01:32:36.464Z,2.00
2022-12-24T01:35:03.595Z,0.00
2022-12-24T01:37:30.475Z,0.00
2022-12-24T01:40:17.340Z,2.00
2022-12-24T01:43:07.367Z,3.00
2022-12-24T01:45:54.918Z,1.00
2022-12-24T01:48:29.029Z,0.00
2022-12-24T01:51:05.144Z,1.00
2022-12-24T01:53:34.911Z,0.25
2022-12-24T01:56:03.145Z,0.00
2022-12-24T01:58:30.367Z,0.25
2022-12-24T02:00:58.209Z,1.00
2022-12-24T02:03:25.277Z,1.00
2022-12-24T02:05:55.180Z,1.00
2022-12-24T02:08:22.479Z,1.00
2022-12-24T02:11:08.119Z,0.50
2022-12-24T02:13:58.224Z,1.50
2022-12-24T02:17:07.667Z,1.50
2022-12-24T02:20:06.335Z,1.50
2022-12-24T02:23:10.772Z,0.00
2022-12-24T02:26:20.084Z,0.25
2022-12-24T02:29:23.767Z,0.00
2022-12-24T02:32:00.620Z,0.00
2022-12-24T02:34:36.734Z,0.00
2022-12-24T02:37:18.006Z,0.00
2022-12-24T02:39:55.339Z,0.00
2022-12-24T02:42:35.175Z,0.00
2022-12-24T02:45:11.041Z,0.00
2022-12-24T02:47:39.533Z,0.00
2022-12-24T02:50:09.473Z,0.75
2022-12-24T02:52:42.482Z,0.00
2022-12-24T02:55:09.650Z,1.00
2022-12-24T02:58:18.723Z,0.00
2022-12-24T03:01:16.522Z,0.00
2022-12-24T03:04:16.826Z,0.00
2022-12-24T03:06:50.223Z,0.00
2022-12-24T03:09:35.095Z,0.00
2022-12-24T03:12:12.423Z,0.00
2022-12-24T03:14:42.254Z,0.00
2022-12-24T03:17:10.605Z,0.00
2022-12-24T03:19:38.201Z,0.00
2022-12-24T03:22:09.240Z,0.00
2022-12-24T03:24:36.624Z,0.00
2022-12-24T03:27:06.777Z,0.00
2022-12-24T03:29:34.206Z,0.00
2022-12-24T03:32:04.204Z,0.00
2022-12-24T03:34:31.526Z,0.00
2022-12-24T03:36:59.422Z,0.75
2022-12-24T03:39:26.346Z,0.00
2022-12-24T03:41:53.223Z,0.00
2022-12-24T03:44:20.159Z,1.00
2022-12-24T03:46:47.085Z,0.00
2022-12-24T03:49:14.073Z,0.00
2022-12-24T03:51:40.993Z,0.00
2022-12-24T03:54:07.901Z,0.00
2022-12-24T03:56:34.875Z,0.25
2022-12-24T03:59:01.813Z,0.25
2022-12-24T04:01:29.066Z,1.75
2022-12-24T04:03:56.031Z,1.50
2022-12-24T04:06:22.959Z,1.00
2022-12-24T04:08:49.921Z,0.00
2022-12-24T04:11:18.118Z,1.25
2022-12-24T04:13:45.087Z,1.00
2022-12-24T04:16:14.897Z,0.00
2022-12-24T04:18:42.986Z,0.25
2022-12-24T04:21:10.505Z,1.00
2022-12-24T04:23:39.201Z,1.00
2022-12-24T04:26:08.598Z,0.00
2022-12-24T04:28:36.263Z,0.50
2022-12-24T04:31:10.737Z,0.00
2022-12-24T04:33:38.399Z,1.00
2022-12-24T04:36:07.287Z,0.00
2022-12-24T04:38:35.250Z,0.00
2022-12-24T04:41:13.804Z,0.00
2022-12-24T04:43:46.113Z,1.75
2022-12-24T04:46:18.850Z,0.00
2022-12-24T04:48:47.579Z,1.00
2022-12-24T04:51:15.488Z,0.50
2022-12-24T04:53:43.275Z,0.00
2022-12-24T04:56:17.009Z,0.00
2022-12-24T04:58:44.733Z,1.00
2022-12-24T05:01:18.618Z,0.50
2022-12-24T05:03:46.039Z,0.00
2022-12-24T05:06:15.357Z,0.00
2022-12-24T05:08:43.871Z,0.25
2022-12-24T05:11:16.129Z,0.00
2022-12-24T05:13:47.070Z,2.00
2022-12-24T05:16:16.210Z,0.00
2022-12-24T05:18:43.187Z,0.00
2022-12-24T05:21:21.913Z,0.00
2022-12-24T05:24:08.068Z,0.25
2022-12-24T05:26:37.039Z,0.00
2022-12-24T05:29:05.748Z,0.00
2022-12-24T05:31:33.783Z,0.00
2022-12-24T05:34:02.075Z,0.00
2022-12-24T05:36:29.584Z,0.00
2022-12-24T05:38:56.520Z,0.00
2022-12-24T05:41:23.781Z,0.00
2022-12-24T05:43:51.218Z,0.00
2022-12-24T05:46:20.234Z,0.75
2022-12-24T05:48:48.174Z,0.00
2022-12-24T05:51:19.915Z,0.25
2022-12-24T05:53:48.000Z,0.00
2022-12-24T05:56:18.567Z,0.75
2022-12-24T05:58:45.817Z,0.00
2022-12-24T06:01:13.655Z,0.00
2022-12-24T06:03:40.694Z,0.75
2022-12-24T06:06:10.990Z,0.00
2022-12-24T06:08:39.112Z,0.00
2022-12-24T06:11:09.279Z,1.00
2022-12-24T06:13:36.787Z,0.00
2022-12-24T06:16:05.762Z,0.00
2022-12-24T06:18:34.636Z,0.75
2022-12-24T06:21:02.053Z,1.00
2022-12-24T06:23:30.744Z,0.00
2022-12-24T06:26:01.212Z,0.00
2022-12-24T06:28:33.659Z,1.00
2022-12-24T06:31:03.148Z,1.00
2022-12-24T06:33:32.151Z,0.00
2022-12-24T06:35:59.549Z,0.00
2022-12-24T06:38:27.220Z,0.00
2022-12-24T06:40:56.103Z,0.00
2022-12-24T06:43:23.370Z,1.25
2022-12-24T06:45:50.842Z,0.75
2022-12-24T06:48:18.047Z,0.00
2022-12-24T06:50:45.379Z,0.00
2022-12-24T06:53:12.368Z,0.00
2022-12-24T06:55:39.517Z,1.00
2022-12-24T06:58:06.672Z,0.00
2022-12-24T07:00:33.713Z,0.50
2022-12-24T07:03:00.975Z,0.00
2022-12-24T07:05:28.810Z,0.00
2022-12-24T07:07:56.591Z,0.00
2022-12-24T07:10:23.764Z,0.00
2022-12-24T07:12:50.684Z,0.00
2022-12-24T07:15:17.810Z,0.00
2022-12-24T07:17:44.978Z,0.00
2022-12-24T07:20:17.516Z,0.00
2022-12-24T07:22:44.487Z,1.00
2022-12-24T07:25:11.859Z,0.00
2022-12-24T07:27:39.609Z,0.00
2022-12-24T07:30:08.039Z,0.00
2022-12-24T07:32:35.382Z,0.00
2022-12-24T07:35:02.501Z,0.00
2022-12-24T07:37:29.447Z,0.00
2022-12-24T07:39:56.373Z,0.00
2022-12-24T07:42:23.427Z,0.00
2022-12-24T07:44:50.363Z,0.00
2022-12-24T07:47:17.364Z,1.00
2022-12-24T07:49:44.371Z,0.00
2022-12-24T07:52:11.311Z,0.00
2022-12-24T07:54:38.287Z,0.00
2022-12-24T07:57:05.276Z,0.00
2022-12-24T07:59:32.274Z,0.00
2022-12-24T08:01:59.443Z,0.00
2022-12-24T08:04:26.649Z,0.00
2022-12-24T08:06:53.547Z,0.00
2022-12-24T08:09:20.533Z,0.50
2022-12-24T08:11:51.909Z,1.00
2022-12-24T08:14:19.602Z,3.00
2022-12-24T08:16:46.720Z,1.50
2022-12-24T08:19:13.786Z,3.75
2022-12-24T08:21:40.905Z,1.75
2022-12-24T08:24:07.898Z,3.50
2022-12-24T08:26:35.003Z,3.25
2022-12-24T08:29:03.129Z,4.25
2022-12-24T08:31:30.615Z,2.50
2022-12-24T08:33:57.687Z,3.00
2022-12-24T08:36:24.635Z,6.00
2022-12-24T08:38:51.606Z,5.75
2022-12-24T08:41:18.550Z,4.75
2022-12-24T08:43:45.481Z,3.00
2022-12-24T08:46:12.540Z,2.00
2022-12-24T08:48:39.631Z,2.00
2022-12-24T08:51:11.568Z,1.00
2022-12-24T08:53:39.240Z,3.75
2022-12-24T08:56:09.408Z,4.25
2022-12-24T08:58:36.366Z,1.00
2022-12-24T09:01:14.976Z,1.75
2022-12-24T09:03:42.529Z,1.25
2022-12-24T09:06:10.047Z,2.00
2022-12-24T09:08:37.590Z,1.00
2022-12-24T09:11:13.535Z,1.25
2022-12-24T09:13:40.961Z,2.00
2022-12-24T09:16:09.327Z,2.00
2022-12-24T09:18:36.422Z,4.00
2022-12-24T09:21:11.632Z,1.00
2022-12-24T09:23:42.521Z,4.00
2022-12-24T09:26:13.637Z,3.00
2022-12-24T09:28:40.559Z,2.75
2022-12-24T09:31:07.801Z,1.00
2022-12-24T09:33:37.865Z,3.75
2022-12-24T09:36:05.993Z,2.75
2022-12-24T09:38:33.927Z,3.50
2022-12-24T09:41:08.763Z,2.25
2022-12-24T09:43:37.486Z,1.75
2022-12-24T09:46:28.392Z,4.00
2022-12-24T09:48:59.352Z,5.00
2022-12-24T09:51:32.279Z,7.50
2022-12-24T09:54:18.280Z,8.25
2022-12-24T09:56:47.441Z,10.25
2022-12-24T09:59:22.014Z,8.50
2022-12-24T10:01:51.955Z,7.75
2022-12-24T10:04:22.952Z,7.00
2022-12-24T10:06:57.131Z,7.00
2022-12-24T10:09:29.823Z,7.00
2022-12-24T10:12:49.519Z,7.00
2022-12-24T10:15:31.379Z,8.25
2022-12-24T10:18:13.458Z,8.00
2022-12-24T10:21:00.977Z,3.50
2022-12-24T10:23:45.674Z,3.25
2022-12-24T10:26:29.519Z,2.50
2022-12-24T10:29:32.035Z,5.75
2022-12-24T10:32:17.648Z,7.00
2022-12-24T10:34:57.908Z,13.25
2022-12-24T10:37:28.809Z,11.25
2022-12-24T10:39:58.272Z,7.25
2022-12-24T10:42:36.133Z,8.25
2022-12-24T10:45:08.036Z,8.25
2022-12-24T10:47:38.631Z,12.50
2022-12-24T10:50:14.042Z,14.75
2022-12-24T10:52:44.122Z,10.50
2022-12-24T10:55:15.221Z,11.75
2022-12-24T10:57:43.759Z,9.00
2022-12-24T11:00:30.015Z,9.25
2022-12-24T11:03:09.175Z,13.00
2022-12-24T11:05:38.237Z,11.25
2022-12-24T11:08:14.704Z,8.25
2022-12-24T11:10:45.383Z,6.00
2022-12-24T11:39:03.819Z,9.00
2022-12-24T11:41:37.847Z,8.00
2022-12-24T11:44:07.978Z,9.00
2022-12-24T11:46:40.001Z,11.75
2022-12-24T11:49:19.349Z,10.25
2022-12-24T11:52:22.765Z,14.25
2022-12-24T11:55:06.582Z,13.00
2022-12-24T11:57:50.021Z,12.75
2022-12-24T12:00:17.345Z,13.75
2022-12-24T12:02:48.448Z,13.00
2022-12-24T12:05:21.867Z,11.00
2022-12-24T12:07:53.595Z,13.00
2022-12-24T12:10:37.617Z,12.50
2022-12-24T12:13:15.492Z,12.75
2022-12-24T12:15:51.699Z,14.00
2022-12-24T12:19:03.879Z,10.75
2022-12-24T12:21:42.892Z,10.25
2022-12-24T12:24:38.281Z,19.50
2022-12-24T12:27:32.780Z,12.75
2022-12-24T12:30:06.788Z,20.25
2022-12-24T12:33:18.884Z,13.00
2022-12-24T12:35:47.403Z,11.00
2022-12-24T12:38:25.592Z,14.50
2022-12-24T12:41:51.593Z,15.25
2022-12-24T12:44:53.706Z,15.25
2022-12-24T12:47:29.333Z,12.25
2022-12-24T12:50:22.312Z,17.25
2022-12-24T12:53:12.234Z,10.00
2022-12-24T12:56:03.300Z,7.50
2022-12-24T12:58:38.788Z,20.50
2022-12-24T13:01:18.324Z,21.00
2022-12-24T13:03:48.044Z,18.50
2022-12-24T13:06:33.215Z,17.50
2022-12-24T13:09:20.690Z,21.50
2022-12-24T13:12:10.781Z,26.25
2022-12-24T13:15:14.489Z,19.25
2022-12-24T13:18:10.876Z,18.00
2022-12-24T13:20:43.524Z,17.75
2022-12-24T13:23:21.779Z,11.50
2022-12-24T13:25:56.164Z,22.50
2022-12-24T13:28:25.484Z,21.50
2022-12-24T13:31:03.614Z,17.50
2022-12-24T13:33:41.321Z,13.75
2022-12-24T13:36:15.770Z,14.25
2022-12-24T13:38:57.897Z,19.75
2022-12-24T13:41:40.050Z,16.00
2022-12-24T13:44:14.350Z,19.50
2022-12-24T13:47:00.973Z,16.00
2022-12-24T13:49:35.606Z,17.00
2022-12-24T13:52:12.392Z,17.75
2022-12-24T13:54:52.796Z,20.50
2022-12-24T13:57:38.984Z,19.50
2022-12-24T14:00:10.116Z,16.50
2022-12-24T14:02:47.996Z,15.50
2022-12-24T14:05:26.714Z,9.00
2022-12-24T14:07:56.704Z,15.50
2022-12-24T14:10:41.376Z,14.00
2022-12-24T14:13:41.011Z,13.50
2022-12-24T14:16:23.368Z,12.25
2022-12-24T14:19:01.592Z,20.00
2022-12-24T14:21:47.033Z,22.25
2022-12-24T14:24:25.758Z,23.50
2022-12-24T14:26:59.375Z,22.75
2022-12-24T14:29:34.272Z,33.25
2022-12-24T14:32:05.285Z,19.00
2022-12-24T14:34:32.378Z,18.75
2022-12-24T14:37:01.828Z,23.25
2022-12-24T14:39:34.716Z,24.00
2022-12-24T14:42:21.855Z,18.50
2022-12-24T14:45:02.582Z,25.75
2022-12-24T14:47:51.277Z,27.50
2022-12-24T14:50:42.785Z,23.50
2022-12-24T14:53:20.552Z,24.75
2022-12-24T14:55:49.589Z,31.75
2022-12-24T14:58:22.630Z,22.50
2022-12-24T15:00:50.743Z,17.50
2022-12-24T15:03:20.599Z,13.25
2022-12-24T15:05:53.877Z,17.25
2022-12-24T15:08:37.044Z,18.25
2022-12-24T15:11:08.355Z,15.25
2022-12-24T15:13:40.739Z,21.50
2022-12-24T15:16:23.091Z,20.75
2022-12-24T15:18:54.060Z,20.25
2022-12-24T15:21:37.859Z,23.00
2022-12-24T15:24:05.124Z,19.25
2022-12-24T15:26:36.778Z,24.25
2022-12-24T15:29:22.161Z,23.00
2022-12-24T15:32:00.713Z,23.75
2022-12-24T15:34:35.873Z,20.00
2022-12-24T15:37:27.774Z,13.00
2022-12-24T15:40:22.806Z,12.00
2022-12-24T15:42:50.216Z,13.00
2022-12-24T15:45:27.744Z,11.75
2022-12-24T15:47:57.062Z,19.75
2022-12-24T15:50:34.640Z,11.50
2022-12-24T15:53:19.932Z,12.75
2022-12-24T15:56:12.796Z,12.50
2022-12-24T15:58:44.566Z,9.00
2022-12-24T16:01:17.960Z,3.50
2022-12-24T16:03:50.987Z,5.00
2022-12-24T16:06:18.877Z,7.75
2022-12-24T16:08:46.407Z,13.25
2022-12-24T16:11:20.188Z,8.00
2022-12-24T16:14:14.447Z,7.00
2022-12-24T16:16:48.376Z,7.50
2022-12-24T16:19:22.825Z,3.25
2022-12-24T16:21:59.301Z,1.00
2022-12-24T16:24:28.077Z,5.50
2022-12-24T16:26:55.736Z,2.00
2022-12-24T16:29:22.911Z,3.00
2022-12-24T16:31:57.907Z,3.00
2022-12-24T16:34:30.954Z,11.50
2022-12-24T16:36:59.032Z,10.25
2022-12-24T16:39:31.131Z,9.25
2022-12-24T16:42:19.001Z,9.75
2022-12-24T16:44:46.526Z,10.50
2022-12-24T16:47:19.892Z,8.50
2022-12-24T16:49:47.067Z,9.50
2022-12-24T16:52:24.160Z,8.00
2022-12-24T16:54:51.082Z,6.75
2022-12-24T16:57:18.991Z,7.50
2022-12-24T16:59:46.010Z,6.25
2022-12-24T17:02:19.136Z,7.25
2022-12-24T17:04:47.112Z,3.75
2022-12-24T17:07:16.877Z,4.00
2022-12-24T17:09:44.122Z,3.75
2022-12-24T17:12:11.886Z,3.00
2022-12-24T17:14:40.162Z,6.00
2022-12-24T17:17:07.261Z,8.00
2022-12-24T17:19:34.262Z,7.00
2022-12-24T17:22:01.169Z,6.25
2022-12-24T17:24:28.224Z,7.00
2022-12-24T17:26:55.148Z,3.25
2022-12-24T17:29:22.402Z,6.75
2022-12-24T17:31:49.389Z,4.50
2022-12-24T17:34:16.329Z,4.50
2022-12-24T17:36:44.054Z,10.75
2022-12-24T17:39:10.983Z,0.50
2022-12-24T17:41:38.023Z,3.50
2022-12-24T17:44:05.205Z,4.00
2022-12-24T17:46:32.170Z,2.00
2022-12-24T17:48:59.139Z,2.50
2022-12-24T17:51:26.435Z,4.50
2022-12-24T17:53:55.727Z,3.75
2022-12-24T17:56:24.592Z,3.00
2022-12-24T17:58:52.316Z,2.00
2022-12-24T18:01:22.942Z,2.00
2022-12-24T18:03:51.637Z,1.50
2022-12-24T18:06:21.758Z,1.00
2022-12-24T18:08:49.467Z,2.00
2022-12-24T18:11:27.059Z,1.00
2022-12-24T18:13:56.096Z,3.00
2022-12-24T18:16:29.286Z,1.00
2022-12-24T18:18:58.706Z,1.00
2022-12-24T18:21:29.568Z,0.00
2022-12-24T18:23:57.113Z,0.00
2022-12-24T18:26:26.624Z,1.00
2022-12-24T18:28:54.862Z,1.00
2022-12-24T18:31:23.366Z,5.25
2022-12-24T18:33:53.502Z,2.00
2022-12-24T18:36:21.818Z,1.00
2022-12-24T18:38:51.682Z,1.00
2022-12-24T18:41:23.361Z,3.25
2022-12-24T18:43:52.092Z,4.75
2022-12-24T18:46:24.886Z,2.75
2022-12-24T18:48:54.669Z,3.75
2022-12-24T18:51:26.438Z,2.00
2022-12-24T18:53:54.984Z,3.00
2022-12-24T18:56:26.378Z,1.00
2022-12-24T18:58:57.995Z,2.25
2022-12-24T19:01:30.679Z,0.25
2022-12-24T19:04:00.463Z,0.00
2022-12-24T19:06:29.939Z,1.00
2022-12-24T19:09:00.896Z,1.00
2022-12-24T19:11:33.035Z,0.50
2022-12-24T19:14:01.570Z,1.50
2022-12-24T19:16:30.101Z,0.00
2022-12-24T19:18:57.830Z,1.00
2022-12-24T19:21:25.130Z,0.00
2022-12-24T19:23:52.185Z,0.00
2022-12-24T19:26:20.662Z,0.25
2022-12-24T19:28:48.417Z,0.00
2022-12-24T19:31:20.840Z,0.00
2022-12-24T19:33:50.536Z,2.00
2022-12-24T19:36:22.373Z,1.75
2022-12-24T19:38:49.426Z,0.50
2022-12-24T19:41:21.810Z,2.00
2022-12-24T19:43:51.524Z,2.00
2022-12-24T19:46:22.064Z,0.00
2022-12-24T19:48:57.341Z,1.00
2022-12-24T19:51:25.212Z,0.00
2022-12-24T19:53:53.668Z,1.00
2022-12-24T19:56:23.107Z,0.25
2022-12-24T19:58:50.312Z,1.00
2022-12-24T20:01:26.138Z,0.50
2022-12-24T20:03:54.197Z,1.00
2022-12-24T20:06:24.332Z,1.00
2022-12-24T20:08:51.987Z,6.25
2022-12-24T20:11:21.632Z,9.75
2022-12-24T20:13:49.566Z,6.00
2022-12-24T20:16:20.028Z,2.50
2022-12-24T20:18:55.381Z,3.00
2022-12-24T20:21:23.021Z,4.25
2022-12-24T20:23:51.097Z,5.00
2022-12-24T20:26:20.099Z,1.25
2022-12-24T20:28:47.368Z,1.00
2022-12-24T20:31:21.149Z,8.75
2022-12-24T20:33:48.370Z,12.50
2022-12-24T20:36:17.773Z,21.25
2022-12-24T20:38:45.642Z,15.25
2022-12-24T20:41:15.171Z,13.00
2022-12-24T20:43:47.968Z,12.50
2022-12-24T20:46:19.890Z,9.00
2022-12-24T20:48:47.340Z,6.75
2022-12-24T20:51:23.797Z,5.50
2022-12-24T20:53:56.741Z,2.50
2022-12-24T20:56:24.706Z,2.75
2022-12-24T20:58:52.531Z,1.00
2022-12-24T21:01:24.842Z,2.50
2022-12-24T21:03:54.027Z,1.00
2022-12-24T21:06:21.556Z,1.25
2022-12-24T21:08:50.328Z,1.00
2022-12-24T21:11:35.988Z,0.00
2022-12-24T21:14:03.228Z,3.25
2022-12-24T21:16:34.776Z,1.25
2022-12-24T21:19:01.888Z,1.00
2022-12-24T21:21:28.772Z,2.00
2022-12-24T21:23:55.779Z,3.00
2022-12-24T21:26:22.794Z,4.00
2022-12-24T21:28:50.737Z,3.00
2022-12-24T21:31:18.404Z,3.75
2022-12-24T21:33:45.607Z,2.50
2022-12-24T21:36:14.065Z,2.00
2022-12-24T21:38:41.703Z,2.00
2022-12-24T21:41:14.758Z,1.00
2022-12-24T21:43:43.133Z,2.00
2022-12-24T21:46:15.812Z,4.00
2022-12-24T21:49:01.659Z,12.50
2022-12-24T21:51:28.983Z,7.25
2022-12-24T21:54:14.850Z,2.25
2022-12-24T21:57:01.000Z,6.75
2022-12-24T21:59:28.820Z,7.75
2022-12-24T22:01:56.996Z,3.00
2022-12-24T22:04:24.965Z,1.00
2022-12-24T22:07:10.405Z,5.00
2022-12-24T22:09:59.514Z,10.25
2022-12-24T22:12:30.067Z,8.00
2022-12-24T22:14:57.158Z,16.25
2022-12-24T22:17:25.822Z,11.25
2022-12-24T22:19:54.422Z,11.25
2022-12-24T22:22:22.694Z,10.00
2022-12-24T22:24:49.690Z,7.00
2022-12-24T22:27:16.844Z,5.50
2022-12-24T22:29:43.774Z,6.25
2022-12-24T22:32:10.713Z,3.00
2022-12-24T22:34:39.390Z,3.00
2022-12-24T22:37:06.554Z,2.00
2022-12-24T22:39:33.620Z,3.50
2022-12-24T22:42:00.698Z,1.00
2022-12-24T22:44:27.748Z,3.00
2022-12-24T22:46:54.965Z,4.00
2022-12-24T22:49:22.330Z,5.50
2022-12-24T22:51:49.273Z,2.00
2022-12-24T22:54:16.443Z,2.25
2022-12-24T22:56:44.000Z,1.75
2022-12-24T22:59:14.226Z,6.25
2022-12-24T23:01:45.003Z,3.50
2022-12-24T23:04:12.852Z,4.50
2022-12-24T23:06:40.671Z,3.50
2022-12-24T23:09:10.444Z,6.00
2022-12-24T23:11:37.459Z,6.50
2022-12-24T23:14:23.009Z,5.25
2022-12-24T23:16:50.330Z,3.00
2022-12-24T23:19:17.417Z,2.00
2022-12-24T23:21:44.417Z,4.50
2022-12-24T23:24:11.916Z,3.00
2022-12-24T23:26:38.878Z,1.75
2022-12-24T23:29:07.773Z,3.00
2022-12-24T23:31:38.027Z,2.50
2022-12-24T23:34:05.122Z,1.75
2022-12-24T23:36:32.073Z,1.75
2022-12-24T23:38:59.132Z,1.00
2022-12-24T23:41:26.178Z,0.00
2022-12-24T23:43:53.255Z,0.75
2022-12-24T23:46:21.359Z,0.50
2022-12-24T23:48:49.140Z,0.25
2022-12-24T23:51:19.367Z,0.00
2022-12-24T23:53:46.471Z,2.00
2022-12-24T23:56:14.019Z,2.00
2022-12-24T23:58:44.144Z,1.50
